sensor_id;sensor_type;location;lat;lon;timestamp;P1;durP1;ratioP1;P2;durP2;ratioP2
51618;SDS011;38518;53.164;5.430;2022-08-07T00:01:06;5.68;;;4.47;;
51618;SDS011;38518;53.164;5.430;2022-08-07T00:03:32;5.10;;;4.40;;
51618;SDS011;38518;53.164;5.430;2022-08-07T00:05:58;5.65;;;4.95;;
51618;SDS011;38518;53.164;5.430;2022-08-07T00:08:23;6.70;;;4.72;;
51618;SDS011;38518;53.164;5.430;2022-08-07T00:10:49;5.45;;;4.60;;
51618;SDS011;38518;53.164;5.430;2022-08-07T00:13:16;5.63;;;5.13;;
51618;SDS011;38518;53.164;5.430;2022-08-07T00:15:43;5.72;;;5.15;;
51618;SDS011;38518;53.164;5.430;2022-08-07T00:18:09;6.00;;;5.40;;
51618;SDS011;38518;53.164;5.430;2022-08-07T00:20:36;5.80;;;5.30;;
51618;SDS011;38518;53.164;5.430;2022-08-07T00:23:03;5.32;;;4.82;;
51618;SDS011;38518;53.164;5.430;2022-08-07T00:25:32;5.43;;;4.93;;
51618;SDS011;38518;53.164;5.430;2022-08-07T00:27:58;5.00;;;4.57;;
51618;SDS011;38518;53.164;5.430;2022-08-07T00:30:23;5.85;;;5.25;;
51618;SDS011;38518;53.164;5.430;2022-08-07T00:32:49;5.82;;;5.22;;
51618;SDS011;38518;53.164;5.430;2022-08-07T00:35:19;5.40;;;4.95;;
51618;SDS011;38518;53.164;5.430;2022-08-07T00:37:45;6.13;;;4.90;;
51618;SDS011;38518;53.164;5.430;2022-08-07T00:40:12;6.80;;;5.45;;
51618;SDS011;38518;53.164;5.430;2022-08-07T00:42:39;5.32;;;4.82;;
51618;SDS011;38518;53.164;5.430;2022-08-07T00:45:05;7.40;;;5.65;;
51618;SDS011;38518;53.164;5.430;2022-08-07T00:47:32;5.90;;;5.03;;
51618;SDS011;38518;53.164;5.430;2022-08-07T00:49:58;6.55;;;5.22;;
51618;SDS011;38518;53.164;5.430;2022-08-07T00:52:24;5.65;;;5.15;;
51618;SDS011;38518;53.164;5.430;2022-08-07T00:54:50;5.90;;;5.30;;
51618;SDS011;38518;53.164;5.430;2022-08-07T00:57:16;5.47;;;4.97;;
51618;SDS011;38518;53.164;5.430;2022-08-07T00:59:42;4.90;;;4.30;;
51618;SDS011;38518;53.164;5.430;2022-08-07T01:02:08;5.38;;;4.85;;
51618;SDS011;38518;53.164;5.430;2022-08-07T01:04:35;5.20;;;4.70;;
51618;SDS011;38518;53.164;5.430;2022-08-07T01:07:02;5.43;;;4.93;;
51618;SDS011;38518;53.164;5.430;2022-08-07T01:09:29;5.13;;;4.57;;
51618;SDS011;38518;53.164;5.430;2022-08-07T01:11:55;4.78;;;4.38;;
51618;SDS011;38518;53.164;5.430;2022-08-07T01:14:22;5.05;;;4.55;;
51618;SDS011;38518;53.164;5.430;2022-08-07T01:16:48;4.82;;;4.35;;
51618;SDS011;38518;53.164;5.430;2022-08-07T01:19:16;4.82;;;4.43;;
51618;SDS011;38518;53.164;5.430;2022-08-07T01:21:42;5.15;;;4.65;;
51618;SDS011;38518;53.164;5.430;2022-08-07T01:24:09;5.18;;;4.25;;
51618;SDS011;38518;53.164;5.430;2022-08-07T01:26:35;5.30;;;4.80;;
51618;SDS011;38518;53.164;5.430;2022-08-07T01:29:01;5.50;;;4.55;;
51618;SDS011;38518;53.164;5.430;2022-08-07T01:31:28;4.70;;;4.30;;
51618;SDS011;38518;53.164;5.430;2022-08-07T01:33:57;5.03;;;4.47;;
51618;SDS011;38518;53.164;5.430;2022-08-07T01:36:24;4.57;;;4.07;;
51618;SDS011;38518;53.164;5.430;2022-08-07T01:38:51;5.72;;;4.30;;
51618;SDS011;38518;53.164;5.430;2022-08-07T01:41:17;4.60;;;4.05;;
51618;SDS011;38518;53.164;5.430;2022-08-07T01:43:44;4.55;;;4.15;;
51618;SDS011;38518;53.164;5.430;2022-08-07T01:46:10;4.60;;;4.20;;
51618;SDS011;38518;53.164;5.430;2022-08-07T01:48:36;5.10;;;4.60;;
51618;SDS011;38518;53.164;5.430;2022-08-07T01:51:05;4.72;;;4.25;;
51618;SDS011;38518;53.164;5.430;2022-08-07T01:53:36;5.15;;;4.65;;
51618;SDS011;38518;53.164;5.430;2022-08-07T01:56:10;4.65;;;4.25;;
51618;SDS011;38518;53.164;5.430;2022-08-07T01:58:50;6.18;;;4.75;;
51618;SDS011;38518;53.164;5.430;2022-08-07T02:01:22;5.22;;;4.72;;
51618;SDS011;38518;53.164;5.430;2022-08-07T02:03:53;5.13;;;4.63;;
51618;SDS011;38518;53.164;5.430;2022-08-07T02:06:22;5.38;;;4.80;;
51618;SDS011;38518;53.164;5.430;2022-08-07T02:08:51;5.00;;;4.50;;
51618;SDS011;38518;53.164;5.430;2022-08-07T02:11:18;5.63;;;5.13;;
51618;SDS011;38518;53.164;5.430;2022-08-07T02:13:44;5.97;;;4.82;;
51618;SDS011;38518;53.164;5.430;2022-08-07T02:16:11;5.00;;;4.50;;
51618;SDS011;38518;53.164;5.430;2022-08-07T02:18:40;5.75;;;5.22;;
51618;SDS011;38518;53.164;5.430;2022-08-07T02:21:08;5.60;;;5.10;;
51618;SDS011;38518;53.164;5.430;2022-08-07T02:23:36;5.85;;;5.35;;
51618;SDS011;38518;53.164;5.430;2022-08-07T02:26:04;5.63;;;5.13;;
51618;SDS011;38518;53.164;5.430;2022-08-07T02:28:32;5.40;;;4.90;;
51618;SDS011;38518;53.164;5.430;2022-08-07T02:31:00;5.35;;;4.85;;
51618;SDS011;38518;53.164;5.430;2022-08-07T02:33:28;5.45;;;4.95;;
51618;SDS011;38518;53.164;5.430;2022-08-07T02:35:57;5.63;;;5.03;;
51618;SDS011;38518;53.164;5.430;2022-08-07T02:38:26;5.78;;;5.18;;
51618;SDS011;38518;53.164;5.430;2022-08-07T02:40:53;5.47;;;4.93;;
51618;SDS011;38518;53.164;5.430;2022-08-07T02:43:21;5.50;;;5.00;;
51618;SDS011;38518;53.164;5.430;2022-08-07T02:45:47;5.55;;;5.05;;
51618;SDS011;38518;53.164;5.430;2022-08-07T02:48:14;5.55;;;5.05;;
51618;SDS011;38518;53.164;5.430;2022-08-07T02:50:41;6.50;;;5.88;;
51618;SDS011;38518;53.164;5.430;2022-08-07T02:53:09;6.43;;;5.80;;
51618;SDS011;38518;53.164;5.430;2022-08-07T02:55:41;6.10;;;5.43;;
51618;SDS011;38518;53.164;5.430;2022-08-07T02:58:11;6.32;;;5.72;;
51618;SDS011;38518;53.164;5.430;2022-08-07T03:00:39;5.80;;;5.30;;
51618;SDS011;38518;53.164;5.430;2022-08-07T03:03:07;6.43;;;5.82;;
51618;SDS011;38518;53.164;5.430;2022-08-07T03:05:34;5.85;;;5.35;;
51618;SDS011;38518;53.164;5.430;2022-08-07T03:08:02;6.45;;;5.85;;
51618;SDS011;38518;53.164;5.430;2022-08-07T03:10:30;6.85;;;6.25;;
51618;SDS011;38518;53.164;5.430;2022-08-07T03:12:56;7.43;;;6.72;;
51618;SDS011;38518;53.164;5.430;2022-08-07T03:15:22;7.60;;;6.82;;
51618;SDS011;38518;53.164;5.430;2022-08-07T03:17:48;7.57;;;6.78;;
51618;SDS011;38518;53.164;5.430;2022-08-07T03:20:15;8.07;;;7.28;;
51618;SDS011;38518;53.164;5.430;2022-08-07T03:22:41;7.53;;;6.82;;
51618;SDS011;38518;53.164;5.430;2022-08-07T03:25:09;7.93;;;7.13;;
51618;SDS011;38518;53.164;5.430;2022-08-07T03:27:35;7.93;;;7.13;;
51618;SDS011;38518;53.164;5.430;2022-08-07T03:30:02;7.80;;;7.05;;
51618;SDS011;38518;53.164;5.430;2022-08-07T03:32:33;8.10;;;7.32;;
51618;SDS011;38518;53.164;5.430;2022-08-07T03:35:03;8.05;;;7.25;;
51618;SDS011;38518;53.164;5.430;2022-08-07T03:37:33;8.98;;;8.10;;
51618;SDS011;38518;53.164;5.430;2022-08-07T03:40:02;8.00;;;7.20;;
51618;SDS011;38518;53.164;5.430;2022-08-07T03:42:28;8.48;;;7.68;;
51618;SDS011;38518;53.164;5.430;2022-08-07T03:44:57;9.07;;;7.50;;
51618;SDS011;38518;53.164;5.430;2022-08-07T03:47:24;8.73;;;7.85;;
51618;SDS011;38518;53.164;5.430;2022-08-07T03:49:51;8.48;;;7.72;;
51618;SDS011;38518;53.164;5.430;2022-08-07T03:52:16;8.70;;;7.90;;
51618;SDS011;38518;53.164;5.430;2022-08-07T03:54:44;9.18;;;8.27;;
51618;SDS011;38518;53.164;5.430;2022-08-07T03:57:10;8.82;;;7.78;;
51618;SDS011;38518;53.164;5.430;2022-08-07T03:59:37;8.48;;;7.68;;
51618;SDS011;38518;53.164;5.430;2022-08-07T04:02:03;9.00;;;8.10;;
51618;SDS011;38518;53.164;5.430;2022-08-07T04:04:29;9.20;;;8.30;;
51618;SDS011;38518;53.164;5.430;2022-08-07T04:06:55;8.73;;;7.82;;
51618;SDS011;38518;53.164;5.430;2022-08-07T04:09:21;9.32;;;8.38;;
51618;SDS011;38518;53.164;5.430;2022-08-07T04:11:48;8.23;;;7.35;;
51618;SDS011;38518;53.164;5.430;2022-08-07T04:14:14;9.07;;;8.18;;
51618;SDS011;38518;53.164;5.430;2022-08-07T04:16:40;8.48;;;7.68;;
51618;SDS011;38518;53.164;5.430;2022-08-07T04:19:06;8.57;;;7.75;;
51618;SDS011;38518;53.164;5.430;2022-08-07T04:21:32;8.52;;;7.72;;
51618;SDS011;38518;53.164;5.430;2022-08-07T04:23:58;10.18;;;8.25;;
51618;SDS011;38518;53.164;5.430;2022-08-07T04:26:25;8.75;;;7.90;;
51618;SDS011;38518;53.164;5.430;2022-08-07T04:28:51;8.60;;;7.70;;
51618;SDS011;38518;53.164;5.430;2022-08-07T04:31:17;9.32;;;8.43;;
51618;SDS011;38518;53.164;5.430;2022-08-07T04:33:44;8.57;;;7.50;;
51618;SDS011;38518;53.164;5.430;2022-08-07T04:36:10;8.15;;;7.35;;
51618;SDS011;38518;53.164;5.430;2022-08-07T04:38:38;8.88;;;8.02;;
51618;SDS011;38518;53.164;5.430;2022-08-07T04:41:04;8.02;;;7.28;;
51618;SDS011;38518;53.164;5.430;2022-08-07T04:43:34;8.18;;;7.38;;
51618;SDS011;38518;53.164;5.430;2022-08-07T04:46:02;8.82;;;7.60;;
51618;SDS011;38518;53.164;5.430;2022-08-07T04:51:06;7.70;;;7.00;;
51618;SDS011;38518;53.164;5.430;2022-08-07T04:56:26;7.88;;;7.18;;
51618;SDS011;38518;53.164;5.430;2022-08-07T04:59:05;8.30;;;7.28;;
51618;SDS011;38518;53.164;5.430;2022-08-07T05:01:48;8.40;;;7.35;;
51618;SDS011;38518;53.164;5.430;2022-08-07T05:04:39;7.70;;;6.97;;
51618;SDS011;38518;53.164;5.430;2022-08-07T05:12:48;7.85;;;7.10;;
51618;SDS011;38518;53.164;5.430;2022-08-07T05:15:23;7.38;;;6.68;;
51618;SDS011;38518;53.164;5.430;2022-08-07T05:17:56;7.90;;;7.10;;
51618;SDS011;38518;53.164;5.430;2022-08-07T05:20:25;7.65;;;6.85;;
51618;SDS011;38518;53.164;5.430;2022-08-07T05:22:55;7.38;;;6.68;;
51618;SDS011;38518;53.164;5.430;2022-08-07T05:25:25;7.25;;;6.55;;
51618;SDS011;38518;53.164;5.430;2022-08-07T05:27:52;8.43;;;7.00;;
51618;SDS011;38518;53.164;5.430;2022-08-07T05:30:18;7.05;;;6.35;;
51618;SDS011;38518;53.164;5.430;2022-08-07T05:32:45;7.43;;;6.30;;
51618;SDS011;38518;53.164;5.430;2022-08-07T05:35:12;7.35;;;5.95;;
51618;SDS011;38518;53.164;5.430;2022-08-07T05:37:39;7.72;;;6.13;;
51618;SDS011;38518;53.164;5.430;2022-08-07T05:40:06;6.43;;;5.82;;
51618;SDS011;38518;53.164;5.430;2022-08-07T05:42:34;7.78;;;6.43;;
51618;SDS011;38518;53.164;5.430;2022-08-07T05:44:59;6.85;;;6.15;;
51618;SDS011;38518;53.164;5.430;2022-08-07T05:47:26;7.22;;;5.95;;
51618;SDS011;38518;53.164;5.430;2022-08-07T05:49:52;9.27;;;6.53;;
51618;SDS011;38518;53.164;5.430;2022-08-07T05:52:19;7.10;;;6.40;;
51618;SDS011;38518;53.164;5.430;2022-08-07T05:54:46;7.13;;;6.32;;
51618;SDS011;38518;53.164;5.430;2022-08-07T05:57:12;6.85;;;6.15;;
51618;SDS011;38518;53.164;5.430;2022-08-07T05:59:39;6.45;;;5.85;;
51618;SDS011;38518;53.164;5.430;2022-08-07T06:02:07;6.45;;;5.43;;
51618;SDS011;38518;53.164;5.430;2022-08-07T06:04:38;5.45;;;4.85;;
51618;SDS011;38518;53.164;5.430;2022-08-07T06:07:09;5.47;;;4.97;;
51618;SDS011;38518;53.164;5.430;2022-08-07T06:09:35;6.00;;;5.40;;
51618;SDS011;38518;53.164;5.430;2022-08-07T06:12:02;6.18;;;5.03;;
51618;SDS011;38518;53.164;5.430;2022-08-07T06:14:28;5.78;;;5.20;;
51618;SDS011;38518;53.164;5.430;2022-08-07T06:16:54;5.45;;;4.90;;
51618;SDS011;38518;53.164;5.430;2022-08-07T06:19:21;5.35;;;4.85;;
51618;SDS011;38518;53.164;5.430;2022-08-07T06:21:48;4.70;;;4.28;;
51618;SDS011;38518;53.164;5.430;2022-08-07T06:24:14;6.45;;;4.60;;
51618;SDS011;38518;53.164;5.430;2022-08-07T06:26:40;5.20;;;4.70;;
51618;SDS011;38518;53.164;5.430;2022-08-07T06:29:07;5.10;;;4.43;;
51618;SDS011;38518;53.164;5.430;2022-08-07T06:31:33;6.47;;;4.70;;
51618;SDS011;38518;53.164;5.430;2022-08-07T06:33:59;6.00;;;5.00;;
51618;SDS011;38518;53.164;5.430;2022-08-07T06:36:25;5.70;;;4.53;;
51618;SDS011;38518;53.164;5.430;2022-08-07T06:38:52;5.00;;;4.47;;
51618;SDS011;38518;53.164;5.430;2022-08-07T06:41:20;4.80;;;4.18;;
51618;SDS011;38518;53.164;5.430;2022-08-07T06:43:50;6.07;;;4.20;;
51618;SDS011;38518;53.164;5.430;2022-08-07T06:46:19;6.35;;;4.20;;
51618;SDS011;38518;53.164;5.430;2022-08-07T06:48:45;4.20;;;3.80;;
51618;SDS011;38518;53.164;5.430;2022-08-07T06:51:16;7.57;;;4.60;;
51618;SDS011;38518;53.164;5.430;2022-08-07T06:53:44;4.88;;;4.07;;
51618;SDS011;38518;53.164;5.430;2022-08-07T06:56:12;6.13;;;4.18;;
51618;SDS011;38518;53.164;5.430;2022-08-07T06:58:38;5.35;;;3.58;;
51618;SDS011;38518;53.164;5.430;2022-08-07T07:01:05;4.40;;;3.78;;
51618;SDS011;38518;53.164;5.430;2022-08-07T07:03:34;4.28;;;3.75;;
51618;SDS011;38518;53.164;5.430;2022-08-07T07:06:03;4.13;;;3.60;;
51618;SDS011;38518;53.164;5.430;2022-08-07T07:08:30;4.18;;;3.67;;
51618;SDS011;38518;53.164;5.430;2022-08-07T07:10:56;4.05;;;3.25;;
51618;SDS011;38518;53.164;5.430;2022-08-07T07:13:26;5.78;;;3.80;;
51618;SDS011;38518;53.164;5.430;2022-08-07T07:16:03;4.05;;;3.08;;
51618;SDS011;38518;53.164;5.430;2022-08-07T07:21:07;3.72;;;2.30;;
51618;SDS011;38518;53.164;5.430;2022-08-07T07:23:39;3.53;;;2.03;;
51618;SDS011;38518;53.164;5.430;2022-08-07T07:26:07;3.05;;;2.67;;
51618;SDS011;38518;53.164;5.430;2022-08-07T07:28:39;3.42;;;2.53;;
51618;SDS011;38518;53.164;5.430;2022-08-07T07:31:20;6.10;;;2.70;;
51618;SDS011;38518;53.164;5.430;2022-08-07T07:33:51;2.83;;;2.03;;
51618;SDS011;38518;53.164;5.430;2022-08-07T07:36:23;2.47;;;1.85;;
51618;SDS011;38518;53.164;5.430;2022-08-07T07:38:50;4.88;;;2.15;;
51618;SDS011;38518;53.164;5.430;2022-08-07T07:41:16;3.88;;;2.35;;
51618;SDS011;38518;53.164;5.430;2022-08-07T07:43:45;2.75;;;2.03;;
51618;SDS011;38518;53.164;5.430;2022-08-07T07:46:14;2.33;;;1.80;;
51618;SDS011;38518;53.164;5.430;2022-08-07T07:48:40;3.35;;;2.00;;
51618;SDS011;38518;53.164;5.430;2022-08-07T07:51:06;2.35;;;2.13;;
51618;SDS011;38518;53.164;5.430;2022-08-07T07:53:39;2.10;;;1.80;;
51618;SDS011;38518;53.164;5.430;2022-08-07T07:56:08;3.63;;;2.10;;
51618;SDS011;38518;53.164;5.430;2022-08-07T07:58:36;3.30;;;1.75;;
51618;SDS011;38518;53.164;5.430;2022-08-07T08:01:03;2.20;;;1.90;;
51618;SDS011;38518;53.164;5.430;2022-08-07T08:03:30;3.28;;;1.98;;
51618;SDS011;38518;53.164;5.430;2022-08-07T08:05:59;2.83;;;1.80;;
51618;SDS011;38518;53.164;5.430;2022-08-07T08:08:27;2.90;;;1.98;;
51618;SDS011;38518;53.164;5.430;2022-08-07T08:10:56;2.78;;;1.90;;
51618;SDS011;38518;53.164;5.430;2022-08-07T08:13:23;2.38;;;2.03;;
51618;SDS011;38518;53.164;5.430;2022-08-07T08:15:51;3.42;;;1.83;;
51618;SDS011;38518;53.164;5.430;2022-08-07T08:18:17;3.25;;;1.80;;
51618;SDS011;38518;53.164;5.430;2022-08-07T08:20:46;2.95;;;1.80;;
51618;SDS011;38518;53.164;5.430;2022-08-07T08:23:12;4.18;;;1.63;;
51618;SDS011;38518;53.164;5.430;2022-08-07T08:26:00;4.20;;;2.00;;
51618;SDS011;38518;53.164;5.430;2022-08-07T08:28:45;3.13;;;1.83;;
51618;SDS011;38518;53.164;5.430;2022-08-07T08:31:18;1.90;;;1.40;;
51618;SDS011;38518;53.164;5.430;2022-08-07T08:33:50;2.75;;;1.67;;
51618;SDS011;38518;53.164;5.430;2022-08-07T08:36:18;2.53;;;1.60;;
51618;SDS011;38518;53.164;5.430;2022-08-07T08:38:47;3.45;;;1.60;;
51618;SDS011;38518;53.164;5.430;2022-08-07T08:44:03;2.00;;;1.40;;
51618;SDS011;38518;53.164;5.430;2022-08-07T08:46:41;2.85;;;1.50;;
51618;SDS011;38518;53.164;5.430;2022-08-07T08:51:56;3.13;;;1.60;;
51618;SDS011;38518;53.164;5.430;2022-08-07T08:54:37;2.80;;;1.50;;
51618;SDS011;38518;53.164;5.430;2022-08-07T08:57:25;2.22;;;1.40;;
51618;SDS011;38518;53.164;5.430;2022-08-07T09:00:01;3.83;;;1.73;;
51618;SDS011;38518;53.164;5.430;2022-08-07T09:02:54;3.70;;;1.63;;
51618;SDS011;38518;53.164;5.430;2022-08-07T09:10:58;2.58;;;1.35;;
51618;SDS011;38518;53.164;5.430;2022-08-07T09:16:43;2.00;;;1.27;;
51618;SDS011;38518;53.164;5.430;2022-08-07T09:27:43;3.25;;;1.40;;
51618;SDS011;38518;53.164;5.430;2022-08-07T09:30:10;1.67;;;1.40;;
51618;SDS011;38518;53.164;5.430;2022-08-07T09:35:44;1.73;;;1.50;;
51618;SDS011;38518;53.164;5.430;2022-08-07T09:40:58;3.08;;;2.00;;
51618;SDS011;38518;53.164;5.430;2022-08-07T09:57:20;3.08;;;2.08;;
51618;SDS011;38518;53.164;5.430;2022-08-07T10:00:03;2.35;;;2.10;;
51618;SDS011;38518;53.164;5.430;2022-08-07T10:19:48;2.50;;;2.08;;
51618;SDS011;38518;53.164;5.430;2022-08-07T10:25:43;2.75;;;2.03;;
51618;SDS011;38518;53.164;5.430;2022-08-07T10:36:34;2.80;;;2.25;;
51618;SDS011;38518;53.164;5.430;2022-08-07T10:39:31;3.03;;;2.20;;
51618;SDS011;38518;53.164;5.430;2022-08-07T10:42:27;3.13;;;2.40;;
51618;SDS011;38518;53.164;5.430;2022-08-07T10:50:22;2.00;;;1.80;;
51618;SDS011;38518;53.164;5.430;2022-08-07T11:03:58;3.08;;;2.47;;
51618;SDS011;38518;53.164;5.430;2022-08-07T11:14:48;3.88;;;2.05;;
51618;SDS011;38518;53.164;5.430;2022-08-07T11:17:29;2.83;;;2.15;;
51618;SDS011;38518;53.164;5.430;2022-08-07T11:20:07;2.35;;;2.15;;
51618;SDS011;38518;53.164;5.430;2022-08-07T11:22:41;2.65;;;2.10;;
51618;SDS011;38518;53.164;5.430;2022-08-07T11:25:22;2.53;;;2.20;;
51618;SDS011;38518;53.164;5.430;2022-08-07T11:28:09;2.42;;;2.20;;
51618;SDS011;38518;53.164;5.430;2022-08-07T11:30:50;4.40;;;2.10;;
51618;SDS011;38518;53.164;5.430;2022-08-07T11:41:36;3.05;;;2.20;;
51618;SDS011;38518;53.164;5.430;2022-08-07T11:59:40;2.15;;;1.95;;
51618;SDS011;38518;53.164;5.430;2022-08-07T12:02:15;3.30;;;2.00;;
51618;SDS011;38518;53.164;5.430;2022-08-07T12:05:03;2.83;;;2.22;;
51618;SDS011;38518;53.164;5.430;2022-08-07T12:07:54;3.28;;;2.30;;
51618;SDS011;38518;53.164;5.430;2022-08-07T12:10:39;2.10;;;2.00;;
51618;SDS011;38518;53.164;5.430;2022-08-07T12:15:50;4.80;;;2.17;;
51618;SDS011;38518;53.164;5.430;2022-08-07T12:24:16;3.60;;;2.30;;
51618;SDS011;38518;53.164;5.430;2022-08-07T12:27:00;2.90;;;2.13;;
51618;SDS011;38518;53.164;5.430;2022-08-07T12:29:53;2.67;;;1.90;;
51618;SDS011;38518;53.164;5.430;2022-08-07T12:32:37;3.40;;;1.90;;
51618;SDS011;38518;53.164;5.430;2022-08-07T12:35:09;2.13;;;1.83;;
51618;SDS011;38518;53.164;5.430;2022-08-07T12:37:36;3.70;;;1.90;;
51618;SDS011;38518;53.164;5.430;2022-08-07T12:40:04;2.47;;;1.70;;
51618;SDS011;38518;53.164;5.430;2022-08-07T12:42:32;4.45;;;1.73;;
51618;SDS011;38518;53.164;5.430;2022-08-07T12:45:04;2.17;;;1.80;;
51618;SDS011;38518;53.164;5.430;2022-08-07T12:52:59;2.08;;;1.50;;
51618;SDS011;38518;53.164;5.430;2022-08-07T12:55:39;2.55;;;1.73;;
51618;SDS011;38518;53.164;5.430;2022-08-07T12:58:11;2.67;;;1.70;;
51618;SDS011;38518;53.164;5.430;2022-08-07T13:12:53;3.55;;;2.10;;
51618;SDS011;38518;53.164;5.430;2022-08-07T13:21:06;2.30;;;2.00;;
51618;SDS011;38518;53.164;5.430;2022-08-07T13:29:02;4.10;;;2.25;;
51618;SDS011;38518;53.164;5.430;2022-08-07T13:31:30;3.03;;;2.05;;
51618;SDS011;38518;53.164;5.430;2022-08-07T13:36:44;2.90;;;2.17;;
51618;SDS011;38518;53.164;5.430;2022-08-07T13:39:20;2.85;;;2.00;;
51618;SDS011;38518;53.164;5.430;2022-08-07T13:44:27;2.85;;;2.13;;
51618;SDS011;38518;53.164;5.430;2022-08-07T13:46:59;2.63;;;2.17;;
51618;SDS011;38518;53.164;5.430;2022-08-07T13:49:31;4.40;;;2.10;;
51618;SDS011;38518;53.164;5.430;2022-08-07T13:52:03;2.90;;;2.07;;
51618;SDS011;38518;53.164;5.430;2022-08-07T13:54:31;3.45;;;2.20;;
51618;SDS011;38518;53.164;5.430;2022-08-07T13:56:59;3.72;;;2.13;;
51618;SDS011;38518;53.164;5.430;2022-08-07T13:59:29;3.63;;;2.72;;
51618;SDS011;38518;53.164;5.430;2022-08-07T14:02:00;3.88;;;2.30;;
51618;SDS011;38518;53.164;5.430;2022-08-07T14:07:37;4.05;;;2.72;;
51618;SDS011;38518;53.164;5.430;2022-08-07T14:10:07;3.15;;;2.35;;
51618;SDS011;38518;53.164;5.430;2022-08-07T14:12:45;4.40;;;2.30;;
51618;SDS011;38518;53.164;5.430;2022-08-07T14:17:42;3.97;;;3.00;;
51618;SDS011;38518;53.164;5.430;2022-08-07T14:22:45;5.25;;;2.60;;
51618;SDS011;38518;53.164;5.430;2022-08-07T14:25:14;4.65;;;2.60;;
51618;SDS011;38518;53.164;5.430;2022-08-07T14:27:45;3.47;;;2.50;;
51618;SDS011;38518;53.164;5.430;2022-08-07T14:30:14;3.58;;;2.42;;
51618;SDS011;38518;53.164;5.430;2022-08-07T14:32:41;2.53;;;2.20;;
51618;SDS011;38518;53.164;5.430;2022-08-07T14:35:21;2.80;;;2.28;;
51618;SDS011;38518;53.164;5.430;2022-08-07T14:37:50;3.83;;;2.40;;
51618;SDS011;38518;53.164;5.430;2022-08-07T14:40:18;6.50;;;2.92;;
51618;SDS011;38518;53.164;5.430;2022-08-07T14:42:51;4.22;;;2.40;;
51618;SDS011;38518;53.164;5.430;2022-08-07T14:45:26;3.90;;;2.40;;
51618;SDS011;38518;53.164;5.430;2022-08-07T14:47:54;3.72;;;2.03;;
51618;SDS011;38518;53.164;5.430;2022-08-07T14:50:22;2.55;;;2.20;;
51618;SDS011;38518;53.164;5.430;2022-08-07T14:52:50;3.72;;;2.45;;
51618;SDS011;38518;53.164;5.430;2022-08-07T14:55:16;3.30;;;2.30;;
51618;SDS011;38518;53.164;5.430;2022-08-07T14:57:45;3.25;;;2.42;;
51618;SDS011;38518;53.164;5.430;2022-08-07T15:00:13;3.42;;;2.10;;
51618;SDS011;38518;53.164;5.430;2022-08-07T15:02:42;2.72;;;2.00;;
51618;SDS011;38518;53.164;5.430;2022-08-07T15:05:16;4.07;;;2.22;;
51618;SDS011;38518;53.164;5.430;2022-08-07T15:07:43;4.20;;;2.25;;
51618;SDS011;38518;53.164;5.430;2022-08-07T15:10:15;3.67;;;2.42;;
51618;SDS011;38518;53.164;5.430;2022-08-07T15:12:45;3.33;;;2.00;;
51618;SDS011;38518;53.164;5.430;2022-08-07T15:15:14;6.30;;;2.40;;
51618;SDS011;38518;53.164;5.430;2022-08-07T15:17:51;3.03;;;1.98;;
51618;SDS011;38518;53.164;5.430;2022-08-07T15:20:21;2.70;;;1.95;;
51618;SDS011;38518;53.164;5.430;2022-08-07T15:22:52;4.50;;;2.47;;
51618;SDS011;38518;53.164;5.430;2022-08-07T15:25:23;2.90;;;1.98;;
51618;SDS011;38518;53.164;5.430;2022-08-07T15:27:56;5.07;;;2.20;;
51618;SDS011;38518;53.164;5.430;2022-08-07T15:30:25;3.78;;;2.42;;
51618;SDS011;38518;53.164;5.430;2022-08-07T15:32:53;2.35;;;2.00;;
51618;SDS011;38518;53.164;5.430;2022-08-07T15:35:23;5.95;;;2.40;;
51618;SDS011;38518;53.164;5.430;2022-08-07T15:37:50;6.57;;;2.53;;
51618;SDS011;38518;53.164;5.430;2022-08-07T15:40:19;3.40;;;2.20;;
51618;SDS011;38518;53.164;5.430;2022-08-07T15:45:46;4.50;;;2.40;;
51618;SDS011;38518;53.164;5.430;2022-08-07T15:48:16;4.40;;;3.20;;
51618;SDS011;38518;53.164;5.430;2022-08-07T15:50:50;3.80;;;2.50;;
51618;SDS011;38518;53.164;5.430;2022-08-07T15:53:28;3.80;;;2.30;;
51618;SDS011;38518;53.164;5.430;2022-08-07T15:56:01;4.72;;;2.10;;
51618;SDS011;38518;53.164;5.430;2022-08-07T15:58:45;4.45;;;2.25;;
51618;SDS011;38518;53.164;5.430;2022-08-07T16:01:24;5.03;;;2.10;;
51618;SDS011;38518;53.164;5.430;2022-08-07T16:03:54;3.65;;;2.45;;
51618;SDS011;38518;53.164;5.430;2022-08-07T16:06:32;3.40;;;2.40;;
51618;SDS011;38518;53.164;5.430;2022-08-07T16:09:17;3.75;;;2.28;;
51618;SDS011;38518;53.164;5.430;2022-08-07T16:14:18;3.58;;;2.40;;
51618;SDS011;38518;53.164;5.430;2022-08-07T16:23:07;3.35;;;2.45;;
51618;SDS011;38518;53.164;5.430;2022-08-07T16:34:31;2.00;;;1.63;;
51618;SDS011;38518;53.164;5.430;2022-08-07T16:37:17;2.00;;;1.45;;
51618;SDS011;38518;53.164;5.430;2022-08-07T16:59:21;2.95;;;1.50;;
51618;SDS011;38518;53.164;5.430;2022-08-07T17:05:16;2.90;;;1.48;;
51618;SDS011;38518;53.164;5.430;2022-08-07T17:15:50;1.33;;;1.23;;
51618;SDS011;38518;53.164;5.430;2022-08-07T17:18:36;1.92;;;1.40;;
51618;SDS011;38518;53.164;5.430;2022-08-07T17:21:25;2.58;;;1.30;;
51618;SDS011;38518;53.164;5.430;2022-08-07T17:24:16;1.88;;;1.20;;
51618;SDS011;38518;53.164;5.430;2022-08-07T17:26:51;2.03;;;1.23;;
51618;SDS011;38518;53.164;5.430;2022-08-07T17:30:20;2.63;;;1.33;;
51618;SDS011;38518;53.164;5.430;2022-08-07T17:43:10;3.53;;;1.58;;
51618;SDS011;38518;53.164;5.430;2022-08-07T17:45:41;3.22;;;1.25;;
51618;SDS011;38518;53.164;5.430;2022-08-07T17:48:16;1.38;;;1.20;;
51618;SDS011;38518;53.164;5.430;2022-08-07T17:51:00;2.50;;;1.52;;
51618;SDS011;38518;53.164;5.430;2022-08-07T17:53:59;2.20;;;1.50;;
51618;SDS011;38518;53.164;5.430;2022-08-07T17:57:32;2.22;;;1.45;;
51618;SDS011;38518;53.164;5.430;2022-08-07T18:02:14;3.40;;;1.55;;
51618;SDS011;38518;53.164;5.430;2022-08-07T18:05:09;1.63;;;1.20;;
51618;SDS011;38518;53.164;5.430;2022-08-07T18:08:05;3.65;;;1.48;;
51618;SDS011;38518;53.164;5.430;2022-08-07T18:10:42;2.72;;;1.60;;
51618;SDS011;38518;53.164;5.430;2022-08-07T18:13:36;1.90;;;1.17;;
51618;SDS011;38518;53.164;5.430;2022-08-07T18:16:23;2.35;;;1.40;;
51618;SDS011;38518;53.164;5.430;2022-08-07T18:21:47;2.58;;;1.55;;
51618;SDS011;38518;53.164;5.430;2022-08-07T18:24:20;3.67;;;1.52;;
51618;SDS011;38518;53.164;5.430;2022-08-07T18:32:19;3.67;;;1.58;;
51618;SDS011;38518;53.164;5.430;2022-08-07T18:46:33;2.92;;;1.58;;
51618;SDS011;38518;53.164;5.430;2022-08-07T18:51:42;3.13;;;1.85;;
51618;SDS011;38518;53.164;5.430;2022-08-07T18:57:25;3.78;;;2.05;;
51618;SDS011;38518;53.164;5.430;2022-08-07T19:00:05;2.63;;;1.45;;
51618;SDS011;38518;53.164;5.430;2022-08-07T19:05:40;3.03;;;1.60;;
51618;SDS011;38518;53.164;5.430;2022-08-07T19:10:59;3.03;;;1.90;;
51618;SDS011;38518;53.164;5.430;2022-08-07T19:13:35;2.47;;;1.63;;
51618;SDS011;38518;53.164;5.430;2022-08-07T19:22:15;1.98;;;1.50;;
51618;SDS011;38518;53.164;5.430;2022-08-07T19:24:47;2.38;;;1.80;;
51618;SDS011;38518;53.164;5.430;2022-08-07T19:27:23;2.70;;;1.80;;
51618;SDS011;38518;53.164;5.430;2022-08-07T19:30:01;2.63;;;1.70;;
51618;SDS011;38518;53.164;5.430;2022-08-07T19:32:31;2.53;;;1.70;;
51618;SDS011;38518;53.164;5.430;2022-08-07T19:35:02;3.28;;;1.80;;
51618;SDS011;38518;53.164;5.430;2022-08-07T19:37:39;2.90;;;1.98;;
51618;SDS011;38518;53.164;5.430;2022-08-07T19:40:08;2.33;;;1.65;;
51618;SDS011;38518;53.164;5.430;2022-08-07T19:42:38;3.70;;;1.50;;
51618;SDS011;38518;53.164;5.430;2022-08-07T19:45:27;4.82;;;1.90;;
51618;SDS011;38518;53.164;5.430;2022-08-07T19:47:55;3.30;;;2.08;;
51618;SDS011;38518;53.164;5.430;2022-08-07T19:50:23;3.45;;;2.17;;
51618;SDS011;38518;53.164;5.430;2022-08-07T19:52:49;3.80;;;2.15;;
51618;SDS011;38518;53.164;5.430;2022-08-07T19:55:20;3.97;;;1.88;;
51618;SDS011;38518;53.164;5.430;2022-08-07T19:57:51;2.13;;;1.63;;